Lynchburg, VA

23:54 EST le 09 décembre 2016 (GMT -0500)
Concord Turnpike | | Change Station

Alt. 543 ft 37.40 °N, 79.11 °W | Updated 1 minute ago

Ciel dégagé
Ciel dégagé
28.6 ° F
Paraît 24 ° F
N
3.9
Vent Variable Vent de NO
Gusts 10.6 mph

Aujourd'hui
Haut(e) -- | Bas -- ° F
--% Risque de précip.
Hier
Haut(e) -- | Bas -- ° F
Precip. -- pouce
Pression 30.48 pouce
Visibilité 10.0 Miles terrestres
Nuages Ciel dégagé
Refroidissement éolien 24 ° F
Point de rosée 12 ° F
Humidité 49%
Précipitations 0.00 pouce
Profondeur de la couche neigeuse Non disponible.
7:19 AM 4:58 PM
Lune gibbeuse croissante, 80% visible
METAR KLYH 100354Z AUTO VRB03KT 10SM CLR M04/M11 A3045 RMK AO2 SLP322 T10441111
Pression 30.48 pouce
Visibilité 10.0 Miles terrestres
Nuages Ciel dégagé
Refroidissement éolien 24 ° F
Point de rosée 12 ° F
Humidité 49%
Précipitations 0.00 pouce
Profondeur de la couche neigeuse Non disponible.
7:19 AM 4:58 PM
Lune gibbeuse croissante, 80% visible
METAR KLYH 100354Z AUTO VRB03KT 10SM CLR M04/M11 A3045 RMK AO2 SLP322 T10441111

10-Day Weather Forecast

Almanac

Astronomie

Dec. 09, 2016 Lever Coucher
Temps réel
Crépuscule civil
Crépuscule nautique
Crépuscule astronomique
Lune
Durée de lumière visible
Longueur du jour
Tomorrow will be .
, % of the Moon is Illuminated

Extrêmes aujourd'hui

State Highs State Lows

Community

WunderPhotos

Upload Photos

1,956,529 Photos téléchargées !

WunderBlog® & News

Nearby

Qualité de l'air

  Qualité de l'air Indice de la qualité de l'air Polluant
Not available.

Épaisseur de neige

Station Depth Altitude

Activité sismique

Ville Distance Mag. Time & Date
Minimum magnitude displayed is 2.5.

Températures des eaux côtières

Lieu Température

Stations

Stations météo à proximité

Emplacement de la station Température Refroidissement éolien Point de rosée Humidité Vent Precip. Alt. Mise à jour Type
                   

Watches & Warnings

There are currently no watches in effect.